Jolley, Iowa
Current Conditions -  °F | °C
As of 3:15 PM on Sunday 23 Nov 2014 (Local Time) from KSLB Reporting Station
Light Rain Light Rain  
Wind Chill: 29°   Ceiling: 3600
Heat Index: 39°   Visibility: 7mi
Dew Point: 37°   Wind: 21mph
Humidity: 93%   Direction: 330°NNW
Pressure: 29.46"   Gusts: 28mph
Location:  42.48°N, 94.72°W
Report Text: KSLB 232115Z AUTO 33018G24KT 7SM -RA FEW012 FEW030 BKN036 04/03 A2946 RMK AO2
Loading
Personal Weather Stations






























Interactive Weather Map New forecast layout! Learn more

10-Day Weather Forecast

Advertisements
Track Severe Weather on mobile